createdAt,value
2018-09-08T06:20:44.970Z,213.75
2018-09-08T06:21:43.049Z,241.88
2018-09-08T06:26:16.453Z,230.63
2018-09-08T06:32:03.619Z,230.63
2018-09-08T06:44:32.501Z,281.25
2018-09-08T06:46:36.708Z,264.38
2018-09-08T06:48:34.984Z,281.25
2018-09-08T06:49:35.354Z,309.38
2018-09-08T06:50:33.223Z,315.00
2018-09-08T06:53:43.309Z,286.88
2018-09-08T06:54:58.186Z,298.13
2018-09-08T06:55:45.253Z,298.13
2018-09-08T06:56:41.777Z,331.88
2018-09-08T07:03:01.406Z,393.75
2018-09-08T07:04:01.952Z,388.13
2018-09-08T07:05:02.436Z,399.38
2018-09-08T07:06:11.265Z,433.13
2018-09-08T07:07:06.352Z,405.00
2018-09-08T07:08:06.103Z,405.00
2018-09-08T07:09:04.399Z,388.13
2018-09-08T08:22:05.367Z,393.75
2018-09-08T08:23:03.099Z,393.75
2018-09-08T08:24:02.944Z,388.13
2018-09-08T08:29:02.451Z,393.75
2018-09-08T08:32:51.561Z,393.75
2018-09-08T08:33:56.440Z,399.38
2018-09-08T08:41:57.994Z,405.00
2018-09-08T08:42:08.143Z,405.00
2018-09-08T08:43:10.259Z,405.00
2018-09-08T09:35:36.828Z,2542.50
2018-09-08T09:36:37.839Z,2581.88
2018-09-08T09:37:37.787Z,2632.50
2018-09-08T09:40:46.897Z,2835.00
2018-09-08T09:42:09.880Z,2941.88
2018-09-08T09:44:40.485Z,2773.13
2018-09-08T09:45:42.918Z,2463.75
2018-09-08T09:47:43.863Z,3037.50
2018-09-08T09:48:32.759Z,2936.25
2018-09-08T09:49:33.161Z,2688.75
2018-09-08T09:50:33.291Z,2891.25
2018-09-08T09:51:33.290Z,2806.88
2018-09-08T09:52:33.646Z,2750.63
2018-09-08T09:53:33.672Z,2896.88
2018-09-08T09:54:33.910Z,2970.00
2018-09-08T09:55:34.161Z,2846.25
2018-09-08T09:56:34.258Z,2874.38
2018-09-08T09:57:34.517Z,3020.63
2018-09-08T09:58:35.178Z,2801.25
2018-09-08T09:59:34.795Z,2745.00
2018-09-08T10:00:35.038Z,2728.13
2018-09-08T10:01:35.089Z,933.75
2018-09-08T10:02:35.346Z,905.63
2018-09-08T10:03:35.471Z,978.75
2018-09-08T10:04:35.905Z,1012.50
2018-09-08T10:05:35.950Z,3178.13
2018-09-08T10:06:36.205Z,3031.88
2018-09-08T10:07:36.225Z,2790.00
2018-09-08T10:08:36.458Z,1800.00
2018-09-08T10:09:36.612Z,2925.00
2018-09-08T10:10:36.815Z,1282.50
2018-09-08T10:11:36.998Z,2030.63
2018-09-08T10:12:37.205Z,1558.13
2018-09-08T10:13:37.300Z,1957.50
2018-09-08T10:14:37.453Z,2525.63
2018-09-08T10:15:37.675Z,2379.38
2018-09-08T10:16:37.798Z,2739.38
2018-09-08T10:17:37.975Z,2998.13
2018-09-08T10:18:38.198Z,2148.75
2018-09-08T10:19:38.407Z,3189.38
2018-09-08T10:20:38.592Z,2930.63
2018-09-08T10:21:38.789Z,2778.75
2018-09-08T10:22:38.933Z,2981.25
2018-09-08T10:23:39.100Z,3155.63
2018-09-08T10:24:39.273Z,2655.00
2018-09-08T10:25:39.449Z,3172.50
2018-09-08T10:26:39.567Z,2902.50
2018-09-08T10:27:39.846Z,2936.25
2018-09-08T10:28:40.009Z,2981.25
2018-09-08T10:29:40.448Z,2548.13
2018-09-08T10:30:40.294Z,2576.25
2018-09-08T10:31:40.517Z,2407.50
2018-09-08T10:32:44.133Z,2739.38
2018-09-08T10:33:50.425Z,2801.25
2018-09-08T10:34:41.052Z,2295.00
2018-09-08T10:35:41.398Z,2936.25
2018-09-08T10:36:41.310Z,2761.88
2018-09-08T10:37:41.526Z,2171.25
2018-09-08T10:38:41.644Z,2469.38
2018-09-08T10:39:41.752Z,2823.75
2018-09-08T10:40:42.036Z,3099.38
2018-09-08T10:41:42.165Z,3330.00
2018-09-08T10:42:42.420Z,2109.38
2018-09-08T10:43:42.463Z,2520.00
2018-09-08T10:44:42.731Z,2446.88
2018-09-08T10:45:42.877Z,3391.88
2018-09-08T10:46:43.069Z,3290.63
2018-09-08T10:47:43.273Z,3375.00
2018-09-08T10:48:43.469Z,3391.88
2018-09-08T10:49:43.559Z,3060.00
2018-09-08T10:50:43.893Z,2806.88
2018-09-08T10:51:43.878Z,2221.88
2018-09-08T10:52:44.091Z,1552.50
2018-09-08T10:53:44.268Z,1642.50
2018-09-08T10:54:44.447Z,2368.13
2018-09-08T10:55:44.596Z,2503.13
2018-09-08T10:56:44.865Z,1957.50
2018-09-08T10:57:44.889Z,2857.50
2018-09-08T10:58:45.121Z,3076.88
2018-09-08T10:59:45.298Z,2559.38
2018-09-08T11:00:45.476Z,3785.63
2018-09-08T11:01:45.739Z,3594.38
2018-09-08T11:02:46.068Z,1434.38
2018-09-08T11:03:46.010Z,1226.25
2018-09-08T11:04:46.167Z,1215.00
2018-09-08T11:05:46.388Z,1220.63
2018-09-08T11:06:46.504Z,1305.00
2018-09-08T11:07:46.701Z,2283.75
2018-09-08T11:08:46.908Z,4303.13
2018-09-08T11:09:47.044Z,1451.25
2018-09-08T11:10:47.199Z,3532.50
2018-09-08T11:11:47.500Z,4033.13
2018-09-08T11:12:47.502Z,3943.13
2018-09-08T11:13:47.786Z,3920.63
2018-09-08T11:14:47.864Z,3060.00
2018-09-08T11:15:48.167Z,4207.50
2018-09-08T11:16:48.354Z,4342.50
2018-09-08T11:17:48.479Z,3560.63
2018-09-08T11:18:48.672Z,3746.25
2018-09-08T11:19:48.817Z,3600.00
2018-09-08T11:20:49.048Z,3335.63
2018-09-08T11:21:49.137Z,2733.75
2018-09-08T11:22:49.336Z,3256.88
2018-09-08T11:23:49.554Z,3234.38
2018-09-08T11:24:49.782Z,3425.63
2018-09-08T11:25:49.867Z,2801.25
2018-09-08T11:26:50.106Z,2812.50
2018-09-08T11:27:50.208Z,3706.88
2018-09-08T11:28:50.395Z,2570.63
2018-09-08T11:29:50.609Z,3172.50
2018-09-08T11:30:50.766Z,2761.88
2018-09-08T11:31:51.015Z,2413.13
2018-09-08T11:32:51.119Z,2300.63
2018-09-08T11:33:51.300Z,2666.25
2018-09-08T11:34:51.397Z,2503.13
2018-09-08T11:56:30.956Z,4556.25
2018-09-08T12:06:14.284Z,3948.75
2018-09-08T12:06:39.634Z,4522.50
2018-09-08T12:09:46.275Z,4055.63
2018-09-08T12:10:48.392Z,4826.25
2018-09-08T12:11:50.518Z,4730.63
2018-09-08T12:13:21.068Z,4640.63
2018-09-08T12:13:55.130Z,4336.88
2018-09-08T12:16:57.365Z,4100.63
2018-09-08T12:18:54.731Z,4016.25
2018-09-08T12:21:35.604Z,4606.88
2018-09-08T12:21:46.381Z,4680.00
2018-09-08T12:22:46.450Z,4719.38
2018-09-08T12:23:46.653Z,4758.75
2018-09-08T12:24:46.778Z,4646.25
2018-09-08T12:25:47.176Z,4331.25
2018-09-08T12:26:47.287Z,4741.88
2018-09-08T12:27:47.476Z,4775.63
2018-09-08T12:28:47.673Z,4803.75
2018-09-08T12:29:48.097Z,4848.75
2018-09-08T12:30:48.180Z,4865.63
2018-09-08T12:31:48.222Z,4888.13
2018-09-08T12:32:48.471Z,4916.25
2018-09-08T12:33:48.512Z,4950.00
2018-09-08T12:34:48.899Z,4989.38
2018-09-08T12:40:01.097Z,4938.75
2018-09-08T12:41:11.282Z,4955.63
2018-09-08T12:43:03.760Z,4494.38
2018-09-08T12:43:58.555Z,4803.75
2018-09-08T12:44:58.716Z,4826.25
2018-09-08T12:45:58.995Z,4854.38
2018-09-08T12:46:59.039Z,4899.38
2018-09-08T12:47:59.491Z,4961.25
2018-09-08T12:48:59.655Z,4966.88
2018-09-08T12:49:59.744Z,4983.75
2018-09-08T12:50:59.875Z,5000.63
2018-09-08T12:52:00.116Z,5051.25
2018-09-08T12:53:00.313Z,5113.13
2018-09-08T12:54:00.487Z,5090.63
2018-09-08T12:55:00.648Z,5017.50
2018-09-08T12:56:00.853Z,4944.38
2018-09-08T12:57:01.012Z,4910.63
2018-09-08T12:58:01.153Z,4927.50
2018-09-08T12:59:01.410Z,4876.88
2018-09-08T13:00:01.580Z,4820.63
2018-09-08T13:01:01.869Z,4753.13
2018-09-08T13:02:01.960Z,4753.13
2018-09-08T13:03:02.114Z,4786.88
2018-09-08T13:04:02.315Z,4820.63
2018-09-08T13:05:02.457Z,4871.25
2018-09-08T13:06:02.731Z,4702.50
2018-09-08T13:07:02.920Z,4820.63
2018-09-08T13:08:03.219Z,4983.75
2018-09-08T13:09:03.359Z,5017.50
2018-09-08T13:10:03.511Z,4966.88
2018-09-08T13:11:04.259Z,4871.25
2018-09-08T13:12:04.056Z,4950.00
2018-09-08T13:13:04.155Z,5203.13
2018-09-08T13:14:04.558Z,5186.25
2018-09-08T13:15:04.614Z,5163.75
2018-09-08T13:16:04.650Z,5118.75
2018-09-08T13:17:04.922Z,5051.25
2018-09-08T13:18:05.097Z,4978.13
2018-09-08T13:19:05.288Z,4893.75
2018-09-08T13:20:05.421Z,4798.13
2018-09-08T13:21:05.582Z,4747.50
2018-09-08T13:22:05.688Z,4702.50
2018-09-08T13:23:05.963Z,4730.63
2018-09-08T13:24:06.301Z,4736.25
2018-09-08T13:25:06.350Z,4775.63
2018-09-08T13:26:06.454Z,4618.13
2018-09-08T13:27:06.692Z,4398.75
2018-09-08T13:28:06.943Z,4263.75
2018-09-08T13:29:07.101Z,4044.38
2018-09-08T13:30:07.236Z,4505.63
2018-09-08T13:31:07.445Z,4635.00
2018-09-08T13:32:07.686Z,4635.00
2018-09-08T13:33:07.765Z,4601.25
2018-09-08T13:34:08.116Z,4573.13
2018-09-08T13:35:08.172Z,4438.13
2018-09-08T13:36:08.457Z,4584.38
2018-09-08T13:37:08.476Z,4590.00
2018-09-08T13:38:08.866Z,4573.13
2018-09-08T13:39:09.051Z,4528.13
2018-09-08T13:40:09.195Z,4117.50
2018-09-08T13:41:09.357Z,4455.00
2018-09-08T13:42:09.555Z,4561.88
2018-09-08T13:43:09.737Z,4415.63
2018-09-08T13:44:09.893Z,4635.00
2018-09-08T13:45:10.201Z,4719.38
2018-09-08T13:46:10.208Z,4719.38
2018-09-08T13:47:10.436Z,4370.63
2018-09-08T13:48:10.600Z,4376.25
2018-09-08T13:49:10.896Z,4370.63
2018-09-08T13:50:10.988Z,4623.75
2018-09-08T13:51:11.131Z,4561.88
2018-09-08T13:52:11.469Z,4590.00
2018-09-08T13:53:11.630Z,4606.88
2018-09-08T13:54:11.726Z,4657.50
2018-09-08T13:55:12.009Z,4663.13
2018-09-08T13:56:12.110Z,4680.00
2018-09-08T13:57:12.361Z,4713.75
2018-09-08T13:58:12.530Z,4657.50
2018-09-08T13:59:12.751Z,4629.38
2018-09-08T14:00:13.024Z,4803.75
2018-09-08T14:01:13.161Z,4781.25
2018-09-08T14:02:16.454Z,4730.63
2018-09-08T14:03:13.476Z,4713.75
2018-09-08T14:04:14.111Z,4685.63
2018-09-08T14:05:14.148Z,4680.00
2018-09-08T14:06:14.113Z,4646.25
2018-09-08T14:07:14.843Z,4635.00
2018-09-08T14:08:14.604Z,4590.00
2018-09-08T14:09:14.712Z,4584.38
2018-09-08T14:10:15.111Z,4567.50
2018-09-08T14:11:15.540Z,4567.50
2018-09-08T14:12:15.424Z,4561.88
2018-09-08T14:13:16.107Z,4494.38
2018-09-08T14:14:15.740Z,4455.00
2018-09-08T14:15:15.906Z,4426.88
2018-09-08T14:16:16.091Z,4381.88
2018-09-08T14:17:16.293Z,4325.63
2018-09-08T14:18:16.476Z,4280.63
2018-09-08T14:19:16.631Z,4258.13
2018-09-08T14:20:16.787Z,4235.63
2018-09-08T14:21:16.994Z,4235.63
2018-09-08T14:22:17.174Z,4224.38
2018-09-08T14:23:17.456Z,4224.38
2018-09-08T14:24:17.593Z,4218.75
2018-09-08T14:25:17.761Z,4263.75
2018-09-08T14:26:17.922Z,4286.25
2018-09-08T14:27:18.214Z,4320.00
2018-09-08T14:28:18.339Z,3988.13
2018-09-08T14:29:18.546Z,3555.00
2018-09-08T14:30:18.822Z,3414.38
2018-09-08T14:31:19.034Z,3875.63
2018-09-08T14:32:19.469Z,3954.38
2018-09-08T14:33:19.328Z,4342.50
2018-09-08T14:34:19.583Z,4297.50
2018-09-08T14:35:19.768Z,4258.13
2018-09-08T14:36:20.152Z,4263.75
2018-09-08T14:37:20.334Z,3538.13
2018-09-08T14:38:20.368Z,2626.88
2018-09-08T14:39:20.567Z,3577.50
2018-09-08T14:40:21.039Z,4021.88
2018-09-08T14:41:21.156Z,3836.25
2018-09-08T14:42:21.314Z,4230.00
2018-09-08T14:43:21.446Z,4106.25
2018-09-08T14:44:21.509Z,3695.63
2018-09-08T14:45:21.676Z,3858.75
2018-09-08T14:46:22.109Z,3268.13
2018-09-08T14:47:22.209Z,3020.63
2018-09-08T14:48:22.179Z,3217.50
2018-09-08T14:49:22.380Z,2705.63
2018-09-08T14:50:22.594Z,3150.00
2018-09-08T14:51:22.742Z,3313.13
2018-09-08T14:52:22.955Z,3763.13
2018-09-08T14:53:23.143Z,2812.50
2018-09-08T14:54:23.480Z,1996.88
2018-09-08T14:55:23.863Z,2722.50
2018-09-08T14:56:24.191Z,2238.75
2018-09-08T14:57:24.280Z,1119.38
2018-09-08T14:58:28.853Z,1929.38
2018-09-08T14:59:24.795Z,2643.75
2018-09-08T15:00:26.342Z,2311.88
2018-09-08T15:01:25.031Z,2385.00
2018-09-08T15:02:25.625Z,2548.13
2018-09-08T15:03:25.239Z,2756.25
2018-09-08T15:04:25.630Z,3133.13
2018-09-08T15:05:26.192Z,2801.25
2018-09-08T15:06:26.065Z,2598.75
2018-09-08T15:07:26.453Z,2407.50
2018-09-08T15:08:26.624Z,2205.00
2018-09-08T15:09:26.317Z,2424.38
2018-09-08T15:10:26.968Z,2362.50
2018-09-08T15:18:31.148Z,3594.38
2018-09-08T15:20:01.328Z,3352.50
2018-09-08T15:21:01.129Z,2666.25
2018-09-08T15:21:59.380Z,3144.38
2018-09-08T15:22:59.221Z,3307.50
2018-09-08T15:23:59.407Z,3397.50
2018-09-08T15:24:59.589Z,2975.63
2018-09-08T15:25:59.823Z,3898.13
2018-09-08T15:27:00.127Z,3718.13
2018-09-08T15:28:00.281Z,3706.88
2018-09-08T15:29:00.480Z,3791.25
2018-09-08T15:30:00.909Z,3189.38
2018-09-08T15:31:00.940Z,3015.00
2018-09-08T15:32:01.837Z,2435.63
2018-09-08T15:33:01.624Z,1721.25
2018-09-08T15:34:01.581Z,2317.50
2018-09-08T15:35:01.573Z,2756.25
2018-09-08T15:36:01.679Z,2407.50
2018-09-08T15:37:02.013Z,2216.25
2018-09-08T15:38:02.212Z,2385.00
2018-09-08T15:39:02.518Z,1929.38
2018-09-08T15:40:02.817Z,1659.38
2018-09-08T15:41:03.324Z,1141.88
2018-09-08T15:42:03.125Z,1057.50
2018-09-08T15:43:03.248Z,1215.00
2018-09-08T15:44:03.612Z,1209.38
2018-09-08T15:45:04.083Z,1035.00
2018-09-08T15:46:03.940Z,1085.63
2018-09-08T15:47:04.230Z,1018.13
2018-09-08T15:48:04.375Z,900.00
2018-09-08T15:49:04.470Z,849.38
2018-09-08T15:50:04.760Z,877.50
2018-09-08T15:51:05.288Z,703.13
2018-09-08T15:52:05.241Z,556.88
2018-09-08T15:53:05.388Z,596.25
2018-09-08T15:54:05.484Z,596.25
2018-09-08T15:55:05.682Z,534.38
2018-09-08T15:56:05.838Z,500.63
2018-09-08T15:57:06.015Z,495.00
2018-09-08T15:58:06.243Z,483.75
2018-09-08T15:59:06.436Z,472.50
2018-09-08T16:00:06.728Z,455.63
2018-09-08T16:01:06.777Z,438.75
2018-09-08T16:02:07.226Z,427.50
2018-09-08T16:03:07.532Z,421.88
2018-09-08T16:04:07.488Z,421.88
2018-09-08T16:05:07.591Z,410.63
2018-09-08T16:06:07.691Z,399.38
2018-09-08T16:07:08.550Z,393.75
2018-09-08T16:08:08.368Z,388.13
2018-09-08T16:09:08.542Z,382.50
2018-09-08T16:10:08.649Z,376.88
2018-09-08T16:11:08.743Z,376.88
2018-09-08T16:12:09.152Z,376.88
2018-09-08T16:13:09.759Z,371.25
2018-09-08T16:14:09.780Z,371.25
2018-09-08T16:15:10.411Z,371.25
2018-09-08T16:16:10.136Z,365.63
2018-09-08T16:17:09.935Z,365.63
2018-09-08T16:18:10.322Z,360.00
2018-09-08T16:19:10.249Z,354.38
2018-09-08T16:20:11.624Z,348.75
2018-09-08T16:21:10.967Z,337.50
2018-09-08T16:22:10.823Z,331.88
2018-09-08T16:23:11.029Z,326.25
2018-09-08T16:24:11.483Z,326.25
2018-09-08T16:25:11.518Z,331.88
2018-09-08T16:26:11.886Z,331.88
2018-09-08T16:27:11.739Z,331.88
2018-09-08T16:28:12.105Z,337.50
2018-09-08T16:29:12.427Z,343.13
2018-09-08T16:30:12.321Z,348.75
2018-09-08T16:36:15.246Z,405.00
2018-09-08T16:38:22.614Z,421.88
2018-09-08T16:47:01.101Z,241.88
2018-09-08T16:47:56.645Z,213.75
2018-09-08T16:49:25.230Z,191.25
2018-09-08T16:49:51.447Z,180.00
2018-09-08T16:54:47.400Z,129.38
2018-09-08T16:56:01.721Z,123.75
2018-09-08T16:57:38.211Z,118.13
2018-09-08T16:58:39.536Z,112.50
2018-09-08T17:04:31.149Z,101.25
2018-09-08T17:05:26.340Z,95.63
2018-09-08T17:06:44.058Z,95.63
2018-09-08T17:08:46.442Z,84.38
2018-09-08T17:09:17.559Z,78.75
2018-09-08T17:10:23.529Z,78.75
2018-09-08T17:11:40.533Z,73.13
2018-09-08T17:16:09.471Z,56.25
2018-09-08T17:19:33.662Z,50.63
2018-09-08T17:22:37.387Z,45.00
2018-09-08T17:29:28.919Z,28.13
2018-09-08T17:42:31.342Z,5.63
2018-09-08T18:01:07.422Z,0.00
2018-09-08T18:21:03.736Z,0.00
2018-09-08T18:23:03.375Z,0.00
2018-09-08T18:39:16.143Z,0.00
2018-09-08T18:49:47.827Z,0.00
2018-09-08T19:19:57.962Z,0.00
2018-09-08T19:21:04.783Z,0.00
2018-09-08T19:22:02.714Z,0.00
2018-09-08T19:22:58.389Z,0.00
